createdAt,value
2022-12-15T00:02:18.316Z,1.03
2022-12-15T00:05:03.836Z,1.15
2022-12-15T00:07:49.121Z,1.17
2022-12-15T00:10:34.833Z,1.05
2022-12-15T00:13:20.258Z,1.11
2022-12-15T00:16:06.226Z,1.11
2022-12-15T00:18:51.767Z,1.17
2022-12-15T00:21:37.211Z,1.07
2022-12-15T00:24:22.464Z,1.17
2022-12-15T00:27:07.714Z,1.15
2022-12-15T00:29:53.036Z,1.09
2022-12-15T00:32:38.544Z,1.12
2022-12-15T00:35:24.460Z,1.09
2022-12-15T00:38:10.358Z,1.04
2022-12-15T00:40:37.394Z,1.19
2022-12-15T00:43:04.309Z,1.09
2022-12-15T00:45:49.832Z,1.03
2022-12-15T00:48:16.809Z,1.22
2022-12-15T00:50:52.554Z,1.09
2022-12-15T00:53:42.102Z,1.18
2022-12-15T00:56:27.979Z,1.10
2022-12-15T00:59:13.517Z,1.14
2022-12-15T01:01:59.063Z,1.22
2022-12-15T01:04:44.911Z,1.16
2022-12-15T01:07:30.590Z,1.09
2022-12-15T01:10:16.277Z,1.18
2022-12-15T01:13:01.778Z,1.18
2022-12-15T01:15:47.282Z,1.11
2022-12-15T01:18:32.800Z,1.16
2022-12-15T01:21:01.787Z,1.25
2022-12-15T01:23:28.961Z,1.07
2022-12-15T01:25:56.330Z,1.07
2022-12-15T01:28:23.691Z,1.22
2022-12-15T01:30:50.680Z,1.15
2022-12-15T01:33:17.864Z,1.17
2022-12-15T01:35:44.988Z,1.27
2022-12-15T01:38:11.950Z,1.11
2022-12-15T01:40:50.344Z,1.25
2022-12-15T01:43:19.744Z,1.16
2022-12-15T01:45:57.203Z,1.22
2022-12-15T01:48:42.628Z,1.18
2022-12-15T01:51:20.523Z,1.31
2022-12-15T01:54:16.536Z,1.25
2022-12-15T01:56:48.358Z,1.14
2022-12-15T01:59:19.919Z,1.26
2022-12-15T02:01:49.727Z,1.21
2022-12-15T02:04:21.014Z,1.21
2022-12-15T02:06:48.061Z,1.33
2022-12-15T02:09:15.656Z,1.19
2022-12-15T02:11:51.629Z,1.28
2022-12-15T02:14:32.511Z,1.16
2022-12-15T02:17:09.927Z,1.19
2022-12-15T02:20:01.736Z,1.32
2022-12-15T02:22:47.669Z,1.30
2022-12-15T02:25:43.853Z,1.32
2022-12-15T02:28:17.222Z,1.31
2022-12-15T02:31:10.116Z,1.14
2022-12-15T02:33:40.985Z,1.31
2022-12-15T02:36:18.749Z,1.30
2022-12-15T02:38:45.821Z,1.17
2022-12-15T02:41:37.257Z,1.31
2022-12-15T02:44:35.667Z,1.23
2022-12-15T02:47:24.577Z,1.27
2022-12-15T02:50:11.805Z,1.12
2022-12-15T02:53:12.115Z,1.28
2022-12-15T02:56:30.223Z,1.27
2022-12-15T02:59:00.074Z,1.28
2022-12-15T03:01:29.856Z,1.17
2022-12-15T03:03:57.085Z,1.30
2022-12-15T03:06:24.969Z,1.32
2022-12-15T03:08:51.893Z,1.23
2022-12-15T03:11:18.920Z,1.21
2022-12-15T03:13:45.939Z,1.16
2022-12-15T03:16:13.005Z,1.30
2022-12-15T03:18:40.169Z,1.19
2022-12-15T03:21:07.163Z,1.27
2022-12-15T03:23:34.485Z,1.20
2022-12-15T03:26:01.568Z,1.27
2022-12-15T03:28:28.980Z,1.23
2022-12-15T03:30:56.620Z,1.25
2022-12-15T03:33:23.521Z,1.32
2022-12-15T03:35:51.373Z,1.24
2022-12-15T03:38:18.793Z,1.23
2022-12-15T03:40:45.726Z,1.23
2022-12-15T03:43:12.722Z,1.29
2022-12-15T03:45:39.688Z,1.30
2022-12-15T03:48:06.741Z,1.40
2022-12-15T03:50:33.712Z,1.24
2022-12-15T03:53:02.021Z,1.24
2022-12-15T03:55:29.168Z,1.24
2022-12-15T03:57:56.356Z,1.24
2022-12-15T04:00:24.765Z,1.31
2022-12-15T04:02:52.043Z,1.22
2022-12-15T04:05:29.572Z,1.24
2022-12-15T04:07:57.184Z,1.22
2022-12-15T04:10:28.650Z,1.42
2022-12-15T04:13:01.395Z,1.26
2022-12-15T04:15:28.601Z,1.33
2022-12-15T04:17:55.583Z,1.39
2022-12-15T04:20:22.837Z,1.35
2022-12-15T04:22:50.458Z,1.27
2022-12-15T04:25:37.850Z,1.27
2022-12-15T04:28:23.757Z,1.35
2022-12-15T04:31:17.426Z,1.28
2022-12-15T04:34:05.094Z,1.32
2022-12-15T04:36:50.435Z,1.28
2022-12-15T04:39:35.792Z,1.35
2022-12-15T04:42:21.685Z,1.31
2022-12-15T04:45:07.094Z,1.34
2022-12-15T04:47:52.694Z,1.29
2022-12-15T04:50:38.143Z,1.30
2022-12-15T04:53:28.291Z,1.39
2022-12-15T04:56:18.410Z,1.40
2022-12-15T04:59:04.878Z,1.20
2022-12-15T05:01:51.102Z,1.38
2022-12-15T05:04:36.701Z,1.35
2022-12-15T05:07:22.275Z,1.26
2022-12-15T05:10:14.409Z,1.35
2022-12-15T05:13:00.939Z,1.40
2022-12-15T05:15:46.529Z,1.26
2022-12-15T05:18:31.909Z,1.41
2022-12-15T05:21:17.778Z,1.36
2022-12-15T05:24:03.281Z,1.31
2022-12-15T05:26:52.697Z,1.25
2022-12-15T05:29:39.798Z,1.36
2022-12-15T05:32:07.884Z,1.23
2022-12-15T05:34:35.781Z,1.34
2022-12-15T05:37:03.553Z,1.29
2022-12-15T05:39:30.608Z,1.28
2022-12-15T05:41:57.712Z,1.46
2022-12-15T05:44:25.475Z,1.41
2022-12-15T05:46:52.610Z,1.29
2022-12-15T05:49:19.613Z,1.42
2022-12-15T05:51:47.521Z,1.45
2022-12-15T05:54:18.600Z,1.34
2022-12-15T05:56:45.691Z,1.32
2022-12-15T05:59:12.756Z,1.38
2022-12-15T06:01:40.115Z,1.43
2022-12-15T06:04:07.646Z,1.37
2022-12-15T06:06:34.691Z,1.41
2022-12-15T06:09:01.667Z,1.35
2022-12-15T06:11:28.672Z,1.40
2022-12-15T06:13:55.947Z,1.41
2022-12-15T06:16:23.522Z,1.44
2022-12-15T06:18:53.147Z,1.43
2022-12-15T06:21:23.879Z,1.35
2022-12-15T06:23:50.844Z,1.39
2022-12-15T06:26:25.626Z,1.43
2022-12-15T06:28:52.669Z,1.35
2022-12-15T06:31:22.901Z,1.45
2022-12-15T06:33:53.515Z,1.39
2022-12-15T06:36:26.579Z,1.38
2022-12-15T06:38:53.732Z,1.32
2022-12-15T06:41:21.327Z,1.36
2022-12-15T06:43:52.243Z,1.46
2022-12-15T06:46:19.627Z,1.43
2022-12-15T06:48:46.934Z,1.32
2022-12-15T06:51:17.237Z,1.33
2022-12-15T06:53:52.830Z,1.37
2022-12-15T06:56:28.853Z,1.44
2022-12-15T06:58:59.525Z,1.42
2022-12-15T07:01:26.615Z,1.44
2022-12-15T07:03:53.986Z,1.37
2022-12-15T07:06:21.240Z,1.51
2022-12-15T07:08:56.737Z,1.52
2022-12-15T07:11:23.978Z,1.38
2022-12-15T07:13:51.632Z,1.47
2022-12-15T07:16:18.804Z,1.47
2022-12-15T07:18:45.876Z,1.47
2022-12-15T07:21:12.865Z,1.53
2022-12-15T07:23:54.115Z,1.37
2022-12-15T07:26:22.179Z,1.39
2022-12-15T07:28:49.124Z,1.50
2022-12-15T07:31:16.243Z,1.42
2022-12-15T07:33:43.247Z,1.45
2022-12-15T07:36:11.184Z,1.42
2022-12-15T07:38:38.177Z,1.34
2022-12-15T07:41:06.392Z,1.34
2022-12-15T07:43:33.918Z,1.49
2022-12-15T07:46:01.518Z,1.42
2022-12-15T07:48:29.377Z,1.40
2022-12-15T07:51:07.482Z,1.53
2022-12-15T07:53:37.174Z,1.63
2022-12-15T07:56:08.014Z,1.59
2022-12-15T07:58:36.370Z,1.60
2022-12-15T08:01:07.928Z,1.67
2022-12-15T08:03:35.994Z,1.49
2022-12-15T08:06:05.564Z,1.57
2022-12-15T08:08:33.545Z,1.55
2022-12-15T08:11:05.005Z,1.49
2022-12-15T08:14:01.452Z,1.59
2022-12-15T08:16:20.228Z,1.63
2022-12-15T08:18:47.352Z,1.54
2022-12-15T08:21:14.807Z,1.63
2022-12-15T08:23:41.851Z,1.66
2022-12-15T08:26:13.841Z,1.77
2022-12-15T08:28:40.986Z,1.80
2022-12-15T08:31:09.766Z,1.75
2022-12-15T08:33:36.876Z,1.85
2022-12-15T08:36:08.565Z,1.74
2022-12-15T08:38:36.141Z,1.74
2022-12-15T08:41:13.765Z,1.78
2022-12-15T08:43:47.659Z,1.83
2022-12-15T08:46:27.418Z,1.68
2022-12-15T08:48:54.663Z,1.78
2022-12-15T08:51:21.942Z,1.82
2022-12-15T08:53:49.490Z,1.71
2022-12-15T08:56:18.668Z,1.73
2022-12-15T08:58:46.458Z,1.96
2022-12-15T09:01:22.816Z,1.69
2022-12-15T09:03:51.477Z,1.98
2022-12-15T09:06:22.833Z,1.84
2022-12-15T09:08:50.381Z,1.83
2022-12-15T09:11:17.878Z,1.83
2022-12-15T09:13:45.108Z,1.93
2022-12-15T09:16:13.916Z,1.87
2022-12-15T09:18:48.685Z,1.91
2022-12-15T09:21:15.810Z,1.96
2022-12-15T09:23:42.825Z,2.00
2022-12-15T09:26:11.534Z,1.90
2022-12-15T09:28:38.765Z,1.97
2022-12-15T09:31:17.089Z,2.10
2022-12-15T09:33:44.431Z,2.03
2022-12-15T09:36:11.533Z,1.86
2022-12-15T09:38:38.537Z,1.98
2022-12-15T09:41:14.080Z,2.05
2022-12-15T09:44:02.314Z,2.11
2022-12-15T09:47:05.943Z,2.16
2022-12-15T09:49:38.649Z,2.15
2022-12-15T09:52:11.078Z,2.11
2022-12-15T09:54:38.566Z,2.01
2022-12-15T09:57:08.964Z,2.10
2022-12-15T09:59:35.952Z,2.26
2022-12-15T10:02:38.050Z,2.26
2022-12-15T10:05:29.814Z,2.21
2022-12-15T10:08:07.970Z,2.04
2022-12-15T10:11:00.165Z,2.31
2022-12-15T10:13:56.027Z,2.31
2022-12-15T10:16:44.108Z,2.34
2022-12-15T10:19:41.154Z,2.18
2022-12-15T10:22:50.661Z,2.25
2022-12-15T10:26:01.457Z,2.40
2022-12-15T10:29:32.283Z,2.39
2022-12-15T10:33:04.245Z,2.31
2022-12-15T10:35:41.999Z,2.42
2022-12-15T10:38:38.010Z,2.17
2022-12-15T10:41:21.684Z,2.30
2022-12-15T10:44:05.842Z,2.45
2022-12-15T10:46:56.924Z,2.21
2022-12-15T10:50:45.255Z,2.51
2022-12-15T10:57:27.719Z,2.31
2022-12-15T11:00:30.288Z,2.34
2022-12-15T11:03:04.188Z,2.32
2022-12-15T11:05:43.954Z,2.34
2022-12-15T11:08:33.897Z,2.42
2022-12-15T11:14:51.241Z,2.29
2022-12-15T11:17:54.187Z,2.32
2022-12-15T11:21:02.658Z,2.50
2022-12-15T11:25:34.066Z,2.34
2022-12-15T11:44:07.711Z,2.51
2022-12-15T11:51:39.443Z,2.66
2022-12-15T11:55:12.029Z,2.68
2022-12-15T11:58:16.287Z,2.70
2022-12-15T12:01:27.036Z,2.46
2022-12-15T12:08:06.385Z,2.74
2022-12-15T12:11:19.232Z,2.74
2022-12-15T12:14:11.666Z,2.76
2022-12-15T12:16:47.612Z,2.64
2022-12-15T12:19:30.401Z,2.80
2022-12-15T12:23:00.266Z,2.73
2022-12-15T12:29:19.539Z,2.76
2022-12-15T12:38:07.468Z,2.54
2022-12-15T12:41:25.011Z,2.81
2022-12-15T12:44:02.754Z,2.64
2022-12-15T12:47:02.125Z,2.78
2022-12-15T12:49:57.045Z,2.65
2022-12-15T12:53:21.083Z,2.65
2022-12-15T13:03:52.435Z,2.57
2022-12-15T13:15:42.349Z,2.87
2022-12-15T13:18:00.556Z,2.74
2022-12-15T13:26:38.106Z,2.71
2022-12-15T13:28:50.377Z,2.90
2022-12-15T13:32:02.345Z,2.62
2022-12-15T13:35:17.254Z,2.57
2022-12-15T13:38:28.577Z,2.59
2022-12-15T13:41:28.231Z,2.67
2022-12-15T13:44:05.830Z,2.78
2022-12-15T13:46:37.393Z,2.69
2022-12-15T13:49:30.025Z,2.70
2022-12-15T13:52:19.349Z,2.63
2022-12-15T13:55:12.059Z,2.77
2022-12-15T13:57:48.615Z,2.82
2022-12-15T14:00:28.850Z,2.63
2022-12-15T14:03:07.266Z,2.81
2022-12-15T14:05:35.727Z,2.70
2022-12-15T14:08:09.135Z,2.78
2022-12-15T14:10:55.924Z,2.68
2022-12-15T14:13:26.257Z,2.74
2022-12-15T14:16:23.397Z,2.78
2022-12-15T14:19:14.429Z,2.88
2022-12-15T14:22:25.139Z,2.56
2022-12-15T14:25:09.525Z,2.65
2022-12-15T14:27:42.797Z,2.59
2022-12-15T14:30:22.003Z,2.87
2022-12-15T14:32:52.792Z,2.69
2022-12-15T14:35:49.542Z,2.84
2022-12-15T14:38:36.347Z,2.86
2022-12-15T14:41:05.316Z,2.55
2022-12-15T14:44:36.632Z,2.64
2022-12-15T14:46:40.672Z,2.71
2022-12-15T14:49:11.891Z,2.60
2022-12-15T14:51:51.581Z,2.61
2022-12-15T14:54:39.764Z,2.56
2022-12-15T14:57:09.895Z,2.83
2022-12-15T14:59:40.892Z,2.49
2022-12-15T15:02:23.118Z,2.67
2022-12-15T15:03:10.164Z,2.51
2022-12-15T15:05:13.291Z,2.59
2022-12-15T15:07:42.055Z,2.51
2022-12-15T15:10:24.776Z,2.58
2022-12-15T15:12:56.779Z,2.55
2022-12-15T15:15:27.055Z,2.61
2022-12-15T15:17:58.384Z,2.59
2022-12-15T15:20:38.069Z,2.71
2022-12-15T15:23:21.035Z,2.81
2022-12-15T15:25:57.925Z,2.51
2022-12-15T15:28:30.658Z,2.54
2022-12-15T15:31:08.112Z,2.59
2022-12-15T15:33:45.498Z,2.51
2022-12-15T15:36:15.587Z,2.54
2022-12-15T15:39:20.474Z,2.55
2022-12-15T15:42:15.225Z,2.45
2022-12-15T15:44:43.477Z,2.46
2022-12-15T15:47:28.738Z,2.56
2022-12-15T15:49:58.419Z,2.64
2022-12-15T15:52:25.629Z,2.47
2022-12-15T15:54:52.991Z,2.64
2022-12-15T15:57:20.106Z,2.72
2022-12-15T15:59:47.342Z,2.53
2022-12-15T16:02:14.753Z,2.66
2022-12-15T16:04:42.552Z,2.60
2022-12-15T16:07:22.903Z,2.76
2022-12-15T16:09:50.330Z,2.53
2022-12-15T16:12:53.584Z,2.70
2022-12-15T16:15:23.233Z,2.51
2022-12-15T16:17:50.336Z,2.57
2022-12-15T16:20:18.353Z,2.48
2022-12-15T16:22:47.511Z,2.71
2022-12-15T16:25:50.836Z,2.52
2022-12-15T16:28:20.624Z,2.45
2022-12-15T16:30:47.884Z,2.62
2022-12-15T16:33:15.138Z,2.48
2022-12-15T16:35:42.455Z,2.45
2022-12-15T16:38:36.042Z,2.70
2022-12-15T16:41:07.501Z,2.43
2022-12-15T16:43:39.195Z,2.41
2022-12-15T16:46:07.534Z,2.56
2022-12-15T16:48:35.197Z,2.49
2022-12-15T16:51:02.837Z,2.62
2022-12-15T16:53:34.520Z,2.65
2022-12-15T16:56:03.463Z,2.51
2022-12-15T16:58:30.910Z,2.66
2022-12-15T17:01:01.338Z,2.47
2022-12-15T17:03:50.219Z,2.46
2022-12-15T17:06:28.009Z,2.48
2022-12-15T17:36:38.592Z,2.54
2022-12-15T17:39:31.698Z,2.40
2022-12-15T17:42:12.734Z,2.32
2022-12-15T18:12:13.318Z,2.44
2022-12-15T18:14:45.719Z,2.35
2022-12-15T18:17:24.948Z,2.39
2022-12-15T18:20:16.968Z,2.47
2022-12-15T18:29:49.482Z,2.33
2022-12-15T18:34:43.462Z,2.45
2022-12-15T18:40:53.209Z,2.37
2022-12-15T18:43:34.160Z,2.50
2022-12-15T18:47:28.755Z,2.35
2022-12-15T18:54:05.135Z,2.53
2022-12-15T19:03:58.556Z,2.38
2022-12-15T19:13:31.374Z,2.39
2022-12-15T19:16:03.079Z,2.28
2022-12-15T19:18:53.048Z,2.30
2022-12-15T19:21:54.649Z,2.38
2022-12-15T19:24:46.761Z,2.53
2022-12-15T19:27:20.626Z,2.32
2022-12-15T19:29:50.499Z,2.38
2022-12-15T19:32:20.907Z,2.39
2022-12-15T19:34:48.005Z,2.35
2022-12-15T19:37:33.541Z,2.39
2022-12-15T19:40:03.519Z,2.34
2022-12-15T19:42:32.286Z,2.41
2022-12-15T19:44:59.976Z,2.36
2022-12-15T19:47:27.052Z,2.52
2022-12-15T19:49:55.114Z,2.36
2022-12-15T19:52:22.455Z,2.36
2022-12-15T19:54:50.128Z,2.37
2022-12-15T19:57:17.888Z,2.50
2022-12-15T19:59:45.101Z,2.36
2022-12-15T20:02:21.613Z,2.43
2022-12-15T20:04:48.875Z,2.49
2022-12-15T20:07:22.220Z,2.47
2022-12-15T20:09:49.208Z,2.36
2022-12-15T20:12:17.417Z,2.46
2022-12-15T20:14:45.322Z,2.57
2022-12-15T20:17:12.421Z,2.35
2022-12-15T20:19:44.266Z,2.48
2022-12-15T20:22:14.118Z,2.44
2022-12-15T20:24:41.337Z,2.39
2022-12-15T20:27:28.335Z,2.38
2022-12-15T20:29:55.515Z,2.52
2022-12-15T20:32:22.566Z,2.53
2022-12-15T20:34:52.067Z,2.42
2022-12-15T20:37:22.308Z,2.57
2022-12-15T20:39:53.959Z,2.41
2022-12-15T20:42:24.156Z,2.45
2022-12-15T20:44:51.249Z,2.39
2022-12-15T20:47:25.617Z,2.40
2022-12-15T20:49:53.127Z,2.39
2022-12-15T20:52:22.952Z,2.35
2022-12-15T20:54:50.759Z,2.43
2022-12-15T20:57:17.868Z,2.36
2022-12-15T20:59:45.014Z,2.44
2022-12-15T21:02:23.115Z,2.38
2022-12-15T21:04:54.892Z,2.42
2022-12-15T21:07:21.979Z,2.43
2022-12-15T21:09:49.057Z,2.65
2022-12-15T21:12:22.952Z,2.37
2022-12-15T21:14:50.125Z,2.40
2022-12-15T21:17:28.885Z,2.49
2022-12-15T21:19:55.996Z,2.36
2022-12-15T21:22:24.499Z,2.34
2022-12-15T21:24:58.240Z,2.47
2022-12-15T21:27:27.740Z,2.43
2022-12-15T21:29:57.766Z,2.39
2022-12-15T21:32:29.488Z,2.43
2022-12-15T21:34:56.551Z,2.57
2022-12-15T21:37:29.754Z,2.43
2022-12-15T21:40:03.978Z,2.46
2022-12-15T21:42:34.121Z,2.38
2022-12-15T21:45:01.204Z,2.55
2022-12-15T21:47:51.908Z,2.42
2022-12-15T21:50:19.476Z,2.44
2022-12-15T21:52:46.533Z,2.49
2022-12-15T21:55:20.911Z,2.44
2022-12-15T21:57:48.050Z,2.65
2022-12-15T22:00:17.397Z,2.48
2022-12-15T22:06:33.377Z,2.49
2022-12-15T22:09:19.063Z,2.43
2022-12-15T22:11:51.948Z,2.41
2022-12-15T22:14:58.380Z,2.49
2022-12-15T22:17:32.590Z,2.47
2022-12-15T22:20:04.469Z,2.53
2022-12-15T22:22:32.027Z,2.48
2022-12-15T22:24:59.266Z,2.48
2022-12-15T22:27:26.445Z,2.46
2022-12-15T22:29:53.591Z,2.60
2022-12-15T22:32:23.099Z,2.46
2022-12-15T22:34:54.590Z,2.42
2022-12-15T22:37:21.587Z,2.45
2022-12-15T22:39:50.824Z,2.53
2022-12-15T22:42:18.798Z,2.72
2022-12-15T22:44:53.389Z,2.67
2022-12-15T22:47:27.564Z,2.55
2022-12-15T22:49:57.310Z,2.48
2022-12-15T22:52:25.456Z,2.59
2022-12-15T22:54:57.013Z,2.47
2022-12-15T22:57:35.136Z,2.46
2022-12-15T23:00:07.575Z,2.51
2022-12-15T23:02:42.909Z,2.56
2022-12-15T23:05:22.615Z,2.46
2022-12-15T23:08:01.099Z,2.48
2022-12-15T23:10:49.919Z,2.52
2022-12-15T23:13:27.798Z,2.45
2022-12-15T23:16:25.455Z,2.53
2022-12-15T23:19:22.301Z,2.55
2022-12-15T23:21:52.484Z,2.53
2022-12-15T23:24:32.751Z,2.50
2022-12-15T23:27:08.656Z,2.48
2022-12-15T23:29:57.052Z,2.53
2022-12-15T23:32:42.361Z,2.60
2022-12-15T23:35:22.464Z,2.51
2022-12-15T23:38:15.120Z,2.60
2022-12-15T23:40:52.561Z,2.64
2022-12-15T23:43:28.094Z,2.55
2022-12-15T23:49:51.110Z,2.69
